Time;durP1;ratioP1;P1;durP2;ratioP2;P2;SDS_P1;SDS_P2;PMS_P1;PMS_P2;Temp;Humidity;BMP_temperature;BMP_pressure;BME280_temperature;BME280_humidity;BME280_pressure;Samples;Min_cycle;Max_cycle;Signal;HPM_P1;HPM_P2
2021/05/24 00:01:05;;;;;;;3.73;1.63;;;12.30;72.00;;;;;;5078587;28;20448;-49
2021/05/24 00:03:33;;;;;;;2.20;1.70;;;12.30;71.90;;;;;;5080360;28;20465;-49
2021/05/24 00:06:01;;;;;;;3.93;1.70;;;12.20;71.80;;;;;;5077605;28;20498;-49
2021/05/24 00:08:30;;;;;;;2.43;1.60;;;12.20;72.10;;;;;;5081295;28;20484;-49
2021/05/24 00:10:58;;;;;;;2.70;1.80;;;12.10;72.20;;;;;;5079842;28;20507;-49
2021/05/24 00:13:26;;;;;;;3.23;1.40;;;12.10;72.40;;;;;;5079746;28;20469;-49
2021/05/24 00:15:56;;;;;;;2.70;1.90;;;12.10;72.40;;;;;;5075491;28;20485;-50
2021/05/24 00:18:24;;;;;;;3.37;2.00;;;12.10;72.50;;;;;;5079485;28;20799;-50
2021/05/24 00:20:56;;;;;;;3.00;1.90;;;12.00;72.50;;;;;;5079354;28;20464;-50
2021/05/24 00:23:24;;;;;;;3.00;2.33;;;12.00;72.70;;;;;;5076022;28;21034;-50
2021/05/24 00:25:52;;;;;;;2.50;2.03;;;11.90;72.70;;;;;;5074554;28;20875;-50
2021/05/24 00:28:20;;;;;;;4.40;2.20;;;11.80;72.80;;;;;;5076611;28;21190;-50
2021/05/24 00:30:52;;;;;;;4.33;2.43;;;11.80;73.30;;;;;;5079538;28;20496;-50
2021/05/24 00:33:20;;;;;;;3.67;2.57;;;11.80;73.40;;;;;;5078591;28;20452;-49
2021/05/24 00:35:48;;;;;;;6.07;3.33;;;11.80;73.40;;;;;;5077623;28;22026;-50
2021/05/24 00:38:16;;;;;;;3.13;2.57;;;11.80;73.40;;;;;;5080882;28;20622;-50
2021/05/24 00:40:44;;;;;;;2.63;2.43;;;11.70;73.50;;;;;;5080823;28;20457;-50
2021/05/24 00:43:13;;;;;;;2.93;2.30;;;11.70;73.70;;;;;;5079842;28;20450;-50
2021/05/24 00:45:41;;;;;;;2.60;2.40;;;11.70;73.70;;;;;;5077805;28;20518;-50
2021/05/24 00:48:11;;;;;;;3.27;2.70;;;11.70;73.70;;;;;;5079104;28;20814;-50
2021/05/24 00:50:39;;;;;;;2.37;2.17;;;11.60;73.80;;;;;;5078637;28;20471;-50
2021/05/24 00:53:08;;;;;;;3.67;2.20;;;11.60;73.80;;;;;;5078474;28;20945;-50
2021/05/24 00:55:36;;;;;;;2.70;2.50;;;11.50;74.00;;;;;;5082639;28;20480;-50
2021/05/24 00:58:05;;;;;;;3.47;2.33;;;11.50;74.00;;;;;;5080283;28;20456;-50
2021/05/24 01:00:46;;;;;;;4.30;2.57;;;11.50;73.80;;;;;;5080439;28;20468;-50
2021/05/24 01:03:15;;;;;;;4.40;2.80;;;11.40;73.80;;;;;;5082872;28;20464;-50
2021/05/24 01:05:45;;;;;;;2.37;2.17;;;11.40;74.00;;;;;;5077242;28;20699;-50
2021/05/24 01:08:14;;;;;;;3.00;2.67;;;11.30;74.10;;;;;;5080214;28;20495;-50
2021/05/24 01:10:44;;;;;;;3.13;2.20;;;11.20;74.20;;;;;;5077343;28;20481;-49
2021/05/24 01:13:13;;;;;;;2.63;2.10;;;11.20;74.50;;;;;;5078402;28;20464;-50
2021/05/24 01:15:42;;;;;;;3.00;2.47;;;11.20;74.70;;;;;;5073399;28;20923;-50
2021/05/24 01:18:10;;;;;;;2.60;2.40;;;11.20;74.70;;;;;;5077643;28;20960;-50
2021/05/24 01:20:39;;;;;;;7.70;2.93;;;11.10;74.90;;;;;;5077304;28;20461;-50
2021/05/24 01:23:10;;;;;;;5.40;2.23;;;11.10;75.10;;;;;;5080877;28;20453;-49
2021/05/24 01:25:47;;;;;;;2.33;2.13;;;11.00;75.20;;;;;;5078203;28;20453;-50
2021/05/24 01:28:17;;;;;;;2.27;2.10;;;11.00;75.20;;;;;;5079119;28;20461;-50
2021/05/24 01:30:45;;;;;;;2.40;2.20;;;11.00;75.20;;;;;;5080351;28;20460;-50
2021/05/24 01:33:14;;;;;;;3.90;2.90;;;10.90;75.10;;;;;;5078131;28;20813;-50
2021/05/24 01:35:42;;;;;;;7.40;2.97;;;10.90;75.10;;;;;;5077059;28;21891;-49
2021/05/24 01:38:12;;;;;;;3.07;2.60;;;10.80;75.00;;;;;;5079430;28;20465;-50
2021/05/24 01:40:44;;;;;;;3.30;2.97;;;10.80;75.20;;;;;;5077149;28;20993;-50
2021/05/24 01:43:13;;;;;;;3.20;2.63;;;10.80;75.30;;;;;;5080409;28;20551;-50
2021/05/24 01:45:42;;;;;;;4.37;3.80;;;10.80;75.30;;;;;;5078223;28;20457;-50
2021/05/24 01:48:11;;;;;;;4.00;2.90;;;10.80;75.40;;;;;;5077043;28;20931;-50
2021/05/24 01:50:39;;;;;;;3.37;2.67;;;10.70;75.50;;;;;;5082024;28;20832;-49
2021/05/24 01:53:07;;;;;;;5.07;3.30;;;10.70;75.80;;;;;;5079378;28;20456;-50
2021/05/24 01:55:35;;;;;;;3.77;2.53;;;10.70;75.90;;;;;;5076983;28;20879;-50
2021/05/24 01:58:05;;;;;;;3.13;2.83;;;10.60;76.00;;;;;;5079568;28;20453;-50
2021/05/24 02:00:33;;;;;;;3.27;2.53;;;10.60;76.20;;;;;;5078500;28;20464;-50
2021/05/24 02:03:01;;;;;;;2.33;2.13;;;10.60;76.10;;;;;;5078797;28;20705;-50
2021/05/24 02:05:30;;;;;;;2.53;2.30;;;10.60;76.00;;;;;;5078136;28;20469;-50
2021/05/24 02:08:01;;;;;;;7.63;2.80;;;10.50;75.90;;;;;;5077066;28;20462;-50
2021/05/24 02:10:35;;;;;;;2.97;2.73;;;10.50;75.70;;;;;;5083498;28;20809;-50
2021/05/24 02:13:05;;;;;;;5.07;2.60;;;10.40;75.70;;;;;;5080317;28;20449;-50
2021/05/24 02:15:36;;;;;;;3.87;2.53;;;10.40;75.70;;;;;;5081249;28;20449;-50
2021/05/24 02:18:06;;;;;;;2.67;2.47;;;10.40;75.80;;;;;;5079709;28;20458;-50
2021/05/24 02:20:34;;;;;;;3.53;2.97;;;10.40;75.60;;;;;;5076788;28;20485;-50
2021/05/24 02:23:06;;;;;;;2.67;2.47;;;10.30;75.60;;;;;;5077717;28;20453;-50
2021/05/24 02:25:34;;;;;;;2.60;2.10;;;10.30;75.60;;;;;;5080421;28;20456;-50
2021/05/24 02:28:04;;;;;;;2.93;2.70;;;10.30;75.70;;;;;;5076807;28;20453;-50
2021/05/24 02:30:34;;;;;;;3.20;2.60;;;10.20;75.90;;;;;;5079639;28;20454;-50
2021/05/24 02:33:04;;;;;;;3.83;2.53;;;10.20;76.20;;;;;;5082553;28;20672;-50
2021/05/24 02:35:33;;;;;;;3.60;3.30;;;10.20;76.40;;;;;;5080041;28;20527;-50
2021/05/24 02:38:01;;;;;;;2.90;2.57;;;10.20;76.50;;;;;;5079055;28;20489;-50
2021/05/24 02:40:30;;;;;;;2.43;2.23;;;10.10;76.60;;;;;;5076303;28;20827;-49
2021/05/24 02:42:58;;;;;;;4.67;2.40;;;10.10;76.70;;;;;;5080181;28;20461;-49
2021/05/24 02:45:26;;;;;;;3.73;2.67;;;10.00;76.70;;;;;;5079676;28;20455;-48
2021/05/24 02:47:54;;;;;;;4.47;2.93;;;10.00;76.80;;;;;;5078389;28;20791;-48
2021/05/24 02:50:24;;;;;;;2.70;2.43;;;9.90;76.80;;;;;;5075874;28;20460;-48
2021/05/24 02:52:54;;;;;;;3.50;2.90;;;9.90;76.90;;;;;;5083430;28;20477;-48
2021/05/24 02:55:22;;;;;;;3.30;3.00;;;9.90;77.10;;;;;;5078896;28;20456;-48
2021/05/24 02:57:50;;;;;;;3.03;2.73;;;9.90;77.20;;;;;;5083663;28;20488;-48
2021/05/24 03:00:19;;;;;;;3.80;2.90;;;9.90;77.20;;;;;;5078390;28;20454;-48
2021/05/24 03:02:49;;;;;;;3.30;3.00;;;9.90;77.20;;;;;;5079573;28;21265;-48
2021/05/24 03:05:19;;;;;;;2.73;2.53;;;9.80;77.30;;;;;;5082656;28;20839;-49
2021/05/24 03:07:50;;;;;;;4.13;2.80;;;9.80;77.50;;;;;;5075472;28;20580;-48
2021/05/24 03:10:20;;;;;;;3.73;2.90;;;9.80;77.50;;;;;;5078603;28;20542;-49
2021/05/24 03:12:49;;;;;;;3.83;2.47;;;9.90;77.50;;;;;;5077185;28;20462;-48
2021/05/24 03:15:19;;;;;;;3.83;3.03;;;9.80;77.50;;;;;;5077219;28;20468;-48
2021/05/24 03:17:47;;;;;;;4.53;2.73;;;9.80;77.60;;;;;;5077948;28;20834;-48
2021/05/24 03:20:17;;;;;;;5.70;3.30;;;9.80;77.60;;;;;;5078152;28;20456;-48
2021/05/24 03:22:49;;;;;;;6.63;3.07;;;9.80;77.50;;;;;;5075607;28;20469;-48
2021/05/24 03:25:18;;;;;;;6.33;2.57;;;9.70;77.70;;;;;;5078623;28;20464;-48
2021/05/24 03:27:47;;;;;;;3.03;2.73;;;9.70;77.90;;;;;;5079752;28;20921;-48
2021/05/24 03:30:16;;;;;;;2.90;2.70;;;9.70;77.80;;;;;;5073858;28;20458;-48
2021/05/24 03:32:45;;;;;;;3.30;2.87;;;9.70;77.80;;;;;;5076545;28;20466;-48
2021/05/24 03:35:13;;;;;;;3.30;2.50;;;9.70;77.80;;;;;;5077063;28;20465;-48
2021/05/24 03:37:41;;;;;;;3.50;2.93;;;9.60;77.90;;;;;;5077729;28;20498;-48
2021/05/24 03:40:12;;;;;;;3.20;2.90;;;9.60;77.90;;;;;;5079484;28;20460;-48
2021/05/24 03:42:40;;;;;;;3.43;2.33;;;9.60;77.90;;;;;;5077765;28;20463;-48
2021/05/24 03:45:13;;;;;;;4.13;3.77;;;9.60;77.90;;;;;;5076344;28;20965;-48
2021/05/24 03:47:42;;;;;;;3.90;3.10;;;9.50;77.90;;;;;;5077219;28;20460;-48
2021/05/24 03:50:11;;;;;;;3.83;2.83;;;9.60;77.90;;;;;;5076476;28;20460;-48
2021/05/24 03:52:39;;;;;;;4.83;3.47;;;9.60;77.80;;;;;;5078197;28;20479;-48
2021/05/24 03:55:08;;;;;;;3.53;3.03;;;9.50;77.70;;;;;;5077690;28;20449;-48
2021/05/24 03:57:36;;;;;;;3.30;3.03;;;9.50;77.70;;;;;;5075593;28;20485;-48
2021/05/24 04:00:05;;;;;;;3.80;2.87;;;9.50;77.70;;;;;;5076346;28;20465;-48
2021/05/24 04:02:34;;;;;;;3.00;2.80;;;9.50;77.70;;;;;;5078336;28;20452;-48
2021/05/24 04:05:12;;;;;;;5.47;2.90;;;9.50;77.70;;;;;;5076447;28;20954;-48
2021/05/24 04:07:43;;;;;;;3.20;2.70;;;9.50;77.60;;;;;;5078135;28;20479;-50
2021/05/24 04:10:12;;;;;;;3.60;3.30;;;9.50;77.70;;;;;;5084174;28;20477;-49
2021/05/24 04:12:40;;;;;;;6.70;2.80;;;9.50;77.80;;;;;;5082210;28;21038;-49
2021/05/24 04:15:08;;;;;;;3.60;2.80;;;9.50;77.90;;;;;;5080856;28;20487;-50
2021/05/24 04:17:39;;;;;;;3.00;2.73;;;9.50;78.00;;;;;;5077361;28;20494;-49
2021/05/24 04:20:10;;;;;;;3.77;3.37;;;9.50;77.90;;;;;;5082362;28;20453;-49
2021/05/24 04:22:40;;;;;;;4.60;4.10;;;9.50;77.90;;;;;;5080768;28;20468;-49
2021/05/24 04:25:09;;;;;;;5.00;4.30;;;9.50;78.10;;;;;;5079777;28;20463;-49
2021/05/24 04:27:38;;;;;;;5.43;4.20;;;9.50;78.20;;;;;;5079526;28;20463;-49
2021/05/24 04:30:10;;;;;;;4.10;3.67;;;9.50;78.40;;;;;;5079105;28;20487;-49
2021/05/24 04:32:38;;;;;;;4.90;3.63;;;9.60;78.30;;;;;;5083063;28;20456;-49
2021/05/24 04:35:08;;;;;;;3.60;3.30;;;9.60;78.40;;;;;;5079194;28;20449;-49
2021/05/24 04:37:36;;;;;;;5.27;3.40;;;9.60;78.70;;;;;;5086122;28;20980;-50
2021/05/24 04:40:06;;;;;;;5.00;3.10;;;9.70;78.70;;;;;;5078635;28;20457;-49
2021/05/24 04:42:34;;;;;;;4.90;3.60;;;9.70;78.80;;;;;;5082258;28;21023;-49
2021/05/24 04:45:02;;;;;;;5.57;3.50;;;9.80;78.70;;;;;;5078269;28;20791;-49
2021/05/24 04:47:30;;;;;;;3.47;3.17;;;9.80;78.90;;;;;;5079783;28;20456;-49
2021/05/24 04:49:58;;;;;;;4.77;3.43;;;9.80;79.20;;;;;;5081384;28;20916;-49
2021/05/24 04:52:26;;;;;;;4.73;3.70;;;9.80;79.40;;;;;;5078654;28;20452;-49
2021/05/24 04:54:54;;;;;;;6.73;4.10;;;9.80;79.50;;;;;;5079760;28;20449;-49
2021/05/24 04:57:23;;;;;;;4.20;3.80;;;9.90;79.70;;;;;;5080403;28;21020;-49
2021/05/24 04:59:52;;;;;;;6.50;4.03;;;9.90;79.70;;;;;;5076351;28;20449;-49
2021/05/24 05:02:19;;;;;;;7.70;4.10;;;10.00;79.70;;;;;;5078916;28;20449;-49
2021/05/24 05:04:48;;;;;;;4.37;3.97;;;10.10;79.30;;;;;;5074480;28;20453;-49
2021/05/24 05:07:16;;;;;;;4.07;3.73;;;10.10;79.30;;;;;;5082179;28;20454;-49
2021/05/24 05:09:44;;;;;;;5.63;4.10;;;10.10;79.40;;;;;;5082471;28;20486;-49
2021/05/24 05:12:12;;;;;;;5.80;4.63;;;10.10;79.60;;;;;;5078362;28;20917;-49
2021/05/24 05:14:40;;;;;;;4.70;3.90;;;10.20;79.80;;;;;;5079652;28;20468;-49
2021/05/24 05:17:08;;;;;;;9.07;4.23;;;10.20;79.90;;;;;;5077964;28;20480;-49
2021/05/24 05:19:37;;;;;;;5.37;4.53;;;10.30;80.00;;;;;;5081197;28;20460;-49
2021/05/24 05:22:05;;;;;;;4.07;3.73;;;10.30;79.90;;;;;;5081791;28;20462;-49
2021/05/24 05:24:34;;;;;;;5.23;4.53;;;10.30;79.70;;;;;;5079712;28;20468;-49
2021/05/24 05:27:02;;;;;;;5.30;4.80;;;10.40;79.70;;;;;;5080165;28;20476;-49
2021/05/24 05:29:30;;;;;;;4.90;3.97;;;10.40;79.70;;;;;;5080763;28;20817;-49
2021/05/24 05:31:58;;;;;;;4.43;4.03;;;10.40;79.80;;;;;;5076019;28;20479;-49
2021/05/24 05:34:27;;;;;;;4.90;3.77;;;10.50;79.90;;;;;;5080853;28;21539;-49
2021/05/24 05:36:54;;;;;;;7.53;5.47;;;10.50;80.00;;;;;;5080547;28;20519;-49
2021/05/24 05:39:22;;;;;;;5.33;4.37;;;10.60;79.70;;;;;;5079046;28;20445;-49
2021/05/24 05:41:50;;;;;;;6.40;4.23;;;10.70;79.80;;;;;;5079259;28;20456;-49
2021/05/24 05:44:18;;;;;;;5.33;4.90;;;10.70;79.70;;;;;;5078288;28;20460;-49
2021/05/24 05:46:47;;;;;;;6.60;5.40;;;10.80;79.70;;;;;;5081841;28;20462;-49
2021/05/24 05:49:15;;;;;;;6.43;5.73;;;10.90;79.50;;;;;;5077036;28;20504;-49
2021/05/24 05:51:43;;;;;;;6.23;5.00;;;11.00;79.50;;;;;;5075722;28;20504;-49
2021/05/24 05:54:11;;;;;;;4.70;4.20;;;11.10;79.30;;;;;;5078464;28;20445;-49
2021/05/24 05:56:39;;;;;;;6.30;4.60;;;11.20;79.00;;;;;;5078405;28;20973;-49
2021/05/24 05:59:07;;;;;;;9.00;5.13;;;11.30;78.70;;;;;;5077903;28;20453;-49
2021/05/24 06:01:35;;;;;;;6.63;4.70;;;11.40;78.60;;;;;;5075637;28;20469;-49
2021/05/24 06:04:03;;;;;;;4.97;4.43;;;11.50;78.20;;;;;;5078980;28;20445;-49
2021/05/24 06:06:31;;;;;;;4.97;4.47;;;11.60;77.90;;;;;;5076360;28;20472;-49
2021/05/24 06:08:59;;;;;;;5.90;4.43;;;11.70;77.30;;;;;;5078836;28;20477;-49
2021/05/24 06:11:27;;;;;;;6.37;4.63;;;11.80;77.10;;;;;;5076169;28;20461;-49
2021/05/24 06:13:56;;;;;;;5.57;3.87;;;11.90;76.60;;;;;;5079363;28;20501;-49
2021/05/24 06:16:25;;;;;;;5.73;4.87;;;12.00;76.50;;;;;;5079141;28;20968;-49
2021/05/24 06:18:53;;;;;;;5.93;4.20;;;12.10;76.00;;;;;;5078066;28;20481;-49
2021/05/24 06:21:21;;;;;;;5.53;5.03;;;12.20;75.80;;;;;;5080549;28;21014;-49
2021/05/24 06:23:49;;;;;;;4.10;3.80;;;12.30;75.40;;;;;;5079588;28;20466;-49
2021/05/24 06:26:17;;;;;;;4.43;4.03;;;12.40;75.30;;;;;;5080678;28;20450;-49
2021/05/24 06:28:46;;;;;;;4.57;3.47;;;12.50;74.90;;;;;;5080640;28;21623;-49
2021/05/24 06:31:14;;;;;;;6.83;4.10;;;12.50;74.60;;;;;;5079150;28;20464;-49
2021/05/24 06:33:42;;;;;;;4.77;4.37;;;12.60;74.00;;;;;;5079538;28;20450;-49
2021/05/24 06:36:10;;;;;;;4.90;3.40;;;12.70;73.60;;;;;;5079894;28;20456;-49
2021/05/24 06:38:38;;;;;;;4.13;3.73;;;12.80;72.40;;;;;;5079704;28;21004;-49
2021/05/24 06:45:40;;;;;;;4.33;3.10;;;12.90;71.30;;;;;;5076843;28;20444;-49
2021/05/24 06:48:08;;;;;;;4.03;3.27;;;13.00;70.90;;;;;;5079628;28;20818;-49
2021/05/24 06:50:36;;;;;;;6.00;3.60;;;13.10;70.40;;;;;;5079794;28;20456;-49
2021/05/24 06:53:04;;;;;;;4.10;3.20;;;13.10;70.40;;;;;;5076074;28;20462;-49
2021/05/24 06:55:32;;;;;;;3.00;2.40;;;13.20;70.40;;;;;;5079938;28;20463;-49
2021/05/24 06:58:00;;;;;;;3.20;2.70;;;13.20;70.30;;;;;;5078084;28;20496;-47
2021/05/24 07:00:29;;;;;;;2.70;2.50;;;13.20;70.00;;;;;;5079491;28;20456;-49
2021/05/24 07:02:57;;;;;;;5.77;2.77;;;13.30;69.90;;;;;;5079691;28;20533;-49
2021/05/24 07:05:26;;;;;;;5.03;2.57;;;13.40;69.80;;;;;;5078770;28;20461;-47
2021/05/24 07:07:54;;;;;;;5.13;2.73;;;13.50;69.40;;;;;;5075723;28;20465;-50
2021/05/24 07:10:22;;;;;;;4.00;3.50;;;13.60;69.00;;;;;;5076797;28;20465;-49
2021/05/24 07:12:49;;;;;;;2.90;2.67;;;13.70;68.40;;;;;;5076596;28;20471;-49
2021/05/24 07:15:18;;;;;;;2.00;1.73;;;13.80;68.20;;;;;;5078790;28;20469;-47
2021/05/24 07:17:46;;;;;;;2.20;2.00;;;13.90;67.60;;;;;;5077170;28;20834;-49
2021/05/24 07:20:14;;;;;;;3.20;2.80;;;13.90;67.00;;;;;;5078258;28;20985;-49
2021/05/24 07:22:42;;;;;;;3.20;2.40;;;14.00;66.80;;;;;;5077333;28;20471;-49
2021/05/24 07:25:11;;;;;;;2.63;2.10;;;14.10;66.60;;;;;;5077765;28;20473;-49
2021/05/24 07:27:39;;;;;;;3.10;2.30;;;14.20;66.50;;;;;;5078394;28;20461;-49
2021/05/24 07:30:08;;;;;;;2.90;2.20;;;14.20;65.90;;;;;;5077713;28;20878;-49
2021/05/24 07:32:36;;;;;;;2.93;1.83;;;14.30;65.90;;;;;;5075939;28;20978;-49
2021/05/24 07:35:05;;;;;;;2.83;2.53;;;14.30;66.10;;;;;;5079056;28;20457;-48
2021/05/24 07:37:33;;;;;;;3.57;3.27;;;14.40;66.30;;;;;;5075958;28;20495;-49
2021/05/24 07:40:01;;;;;;;2.77;2.57;;;14.50;66.40;;;;;;5076055;28;21106;-48
2021/05/24 07:42:29;;;;;;;3.30;3.00;;;14.50;66.40;;;;;;5079216;28;20464;-49
2021/05/24 07:44:58;;;;;;;3.00;2.17;;;14.70;66.10;;;;;;5080625;28;20975;-49
2021/05/24 07:47:26;;;;;;;2.13;2.00;;;14.80;65.80;;;;;;5083434;28;20454;-49
2021/05/24 07:49:54;;;;;;;3.17;2.10;;;15.00;65.50;;;;;;5083916;28;20522;-49
2021/05/24 07:52:22;;;;;;;4.77;2.93;;;15.10;64.70;;;;;;5081095;28;20454;-49
2021/05/24 07:54:50;;;;;;;2.67;2.33;;;15.20;64.80;;;;;;5080004;28;20464;-49
2021/05/24 07:57:18;;;;;;;4.07;2.33;;;15.30;64.60;;;;;;5081633;28;20831;-49
2021/05/24 07:59:46;;;;;;;3.20;2.70;;;15.40;64.20;;;;;;5082244;28;20449;-49
2021/05/24 08:02:14;;;;;;;4.57;2.50;;;15.40;63.80;;;;;;5079237;28;20843;-49
2021/05/24 08:04:42;;;;;;;4.03;2.63;;;15.50;63.70;;;;;;5081761;28;20453;-49
2021/05/24 08:07:10;;;;;;;5.13;3.13;;;15.60;63.50;;;;;;5081525;28;20459;-49
2021/05/24 08:09:39;;;;;;;2.93;2.57;;;15.70;63.30;;;;;;5081987;28;20856;-49
2021/05/24 08:12:08;;;;;;;3.57;2.40;;;15.80;63.30;;;;;;5079871;28;20818;-49
2021/05/24 08:14:36;;;;;;;4.63;2.90;;;15.80;63.30;;;;;;5080297;28;20456;-49
2021/05/24 08:17:04;;;;;;;4.90;2.57;;;15.90;63.20;;;;;;5080365;28;20957;-49
2021/05/24 08:19:32;;;;;;;6.83;3.40;;;16.00;63.10;;;;;;5081479;28;20492;-49
2021/05/24 08:22:00;;;;;;;3.50;2.73;;;16.20;62.60;;;;;;5083820;28;20432;-50
2021/05/24 08:24:28;;;;;;;3.20;2.90;;;16.30;62.60;;;;;;5080718;28;20454;-49
2021/05/24 08:26:56;;;;;;;3.80;2.10;;;16.30;62.90;;;;;;5078366;28;20461;-49
2021/05/24 08:29:24;;;;;;;2.20;1.73;;;16.50;61.20;;;;;;5081133;28;20449;-49
2021/05/24 08:31:52;;;;;;;2.20;2.00;;;16.60;60.50;;;;;;5076976;28;20743;-49
2021/05/24 08:34:20;;;;;;;1.40;1.30;;;16.60;60.00;;;;;;5083876;28;20468;-49
2021/05/24 08:36:49;;;;;;;2.83;1.90;;;16.70;60.20;;;;;;5078952;28;20442;-49
2021/05/24 08:39:17;;;;;;;6.63;1.90;;;16.90;60.40;;;;;;5080354;28;20493;-49
2021/05/24 08:41:46;;;;;;;2.10;1.77;;;17.00;60.40;;;;;;5080313;28;20468;-49
2021/05/24 08:44:15;;;;;;;2.80;1.70;;;17.20;59.60;;;;;;5079265;28;20441;-50
2021/05/24 08:46:48;;;;;;;4.20;2.17;;;17.50;59.30;;;;;;5082132;28;20445;-49
2021/05/24 08:49:36;;;;;;;2.53;1.70;;;17.70;58.90;;;;;;5077293;28;20453;-49
2021/05/24 08:52:09;;;;;;;1.60;1.43;;;17.90;58.20;;;;;;5080768;28;20444;-49
2021/05/24 08:54:37;;;;;;;2.13;1.87;;;18.20;57.20;;;;;;5080437;28;20452;-49
2021/05/24 08:57:05;;;;;;;2.63;1.73;;;18.40;57.00;;;;;;5078584;28;20666;-49
2021/05/24 08:59:36;;;;;;;4.20;1.87;;;18.50;56.60;;;;;;5082141;28;20484;-49
2021/05/24 09:02:04;;;;;;;2.70;2.10;;;18.60;56.00;;;;;;5081269;28;20457;-49
2021/05/24 09:04:43;;;;;;;5.37;1.80;;;18.70;55.40;;;;;;5079588;28;20457;-49
2021/05/24 09:07:12;;;;;;;4.70;1.90;;;18.70;55.70;;;;;;5080661;28;20485;-49
2021/05/24 09:09:56;;;;;;;4.13;1.57;;;18.80;55.50;;;;;;5083038;28;20469;-49
2021/05/24 09:12:31;;;;;;;1.77;1.40;;;18.90;54.90;;;;;;5082141;28;20835;-49
2021/05/24 09:15:10;;;;;;;1.70;1.60;;;19.00;54.50;;;;;;5079064;28;20930;-49
2021/05/24 09:17:50;;;;;;;2.87;1.97;;;19.20;54.30;;;;;;5081100;28;20449;-49
2021/05/24 09:20:22;;;;;;;4.10;1.63;;;19.30;54.00;;;;;;5082569;28;20445;-49
2021/05/24 09:23:21;;;;;;;9.97;3.07;;;19.40;53.60;;;;;;5081676;28;20949;-49
2021/05/24 09:25:53;;;;;;;3.90;2.10;;;19.60;53.10;;;;;;5082531;28;20453;-49
2021/05/24 09:28:32;;;;;;;4.20;1.70;;;19.60;52.60;;;;;;5079788;28;20724;-49
2021/05/24 09:31:06;;;;;;;3.07;1.60;;;19.50;52.70;;;;;;5080426;28;20937;-50
2021/05/24 09:33:40;;;;;;;2.07;1.33;;;19.50;52.60;;;;;;5083786;28;20475;-49
2021/05/24 09:36:08;;;;;;;1.40;1.17;;;19.60;52.50;;;;;;5080214;28;20476;-49
2021/05/24 09:38:40;;;;;;;1.80;1.60;;;19.70;52.10;;;;;;5081998;28;20790;-49
2021/05/24 09:41:10;;;;;;;2.23;1.50;;;19.90;52.30;;;;;;5078809;28;20819;-49
2021/05/24 09:43:48;;;;;;;3.30;1.67;;;20.10;52.10;;;;;;5077809;28;20514;-49
2021/05/24 09:46:25;;;;;;;1.73;1.37;;;20.30;51.50;;;;;;5084484;28;20951;-49
2021/05/24 09:49:01;;;;;;;2.73;1.57;;;20.50;50.80;;;;;;5081345;28;20988;-49
2021/05/24 09:51:31;;;;;;;2.20;1.23;;;20.50;49.60;;;;;;5082151;28;20453;-49
2021/05/24 09:54:12;;;;;;;1.93;1.70;;;20.60;49.00;;;;;;5081143;28;20445;-49
2021/05/24 09:56:46;;;;;;;1.20;1.07;;;20.80;48.90;;;;;;5080508;28;20539;-49
2021/05/24 09:59:21;;;;;;;3.17;1.20;;;21.10;49.10;;;;;;5082145;28;20476;-49
2021/05/24 10:01:54;;;;;;;1.30;1.20;;;21.30;49.10;;;;;;5079220;28;20461;-50
2021/05/24 10:04:29;;;;;;;2.03;1.30;;;21.40;47.80;;;;;;5079199;28;20449;-49
2021/05/24 10:07:00;;;;;;;3.07;1.67;;;21.40;47.80;;;;;;5078398;28;20460;-49
2021/05/24 10:09:32;;;;;;;2.20;1.63;;;21.30;47.50;;;;;;5081105;28;20468;-49
2021/05/24 10:12:02;;;;;;;1.40;1.30;;;21.10;47.90;;;;;;5079614;28;20459;-50
2021/05/24 10:14:32;;;;;;;3.27;1.70;;;21.10;48.60;;;;;;5080265;28;20461;-49
2021/05/24 10:17:02;;;;;;;2.77;1.70;;;21.10;47.50;;;;;;5081733;28;20824;-50
2021/05/24 10:19:31;;;;;;;3.23;1.47;;;21.10;47.70;;;;;;5083705;28;20549;-49
2021/05/24 10:22:01;;;;;;;3.63;2.13;;;21.10;47.70;;;;;;5084060;28;20452;-49
2021/05/24 10:24:35;;;;;;;3.40;2.20;;;21.10;48.20;;;;;;5079834;28;20817;-49
2021/05/24 10:27:08;;;;;;;3.43;1.40;;;21.10;48.20;;;;;;5079416;28;20913;-49
2021/05/24 10:29:38;;;;;;;1.40;1.27;;;21.10;48.10;;;;;;5079832;28;20457;-49
2021/05/24 10:32:10;;;;;;;2.43;1.20;;;21.10;48.00;;;;;;5077112;28;20559;-49
2021/05/24 10:34:39;;;;;;;1.93;1.00;;;21.10;47.10;;;;;;5078202;28;20452;-49
2021/05/24 10:37:17;;;;;;;1.23;0.73;;;21.00;46.80;;;;;;5077914;28;20465;-49
2021/05/24 10:40:03;;;;;;;1.70;0.87;;;21.00;47.20;;;;;;5078414;28;20508;-49
2021/05/24 10:42:44;;;;;;;2.00;0.53;;;21.00;46.50;;;;;;5079704;28;20959;-49
2021/05/24 10:45:19;;;;;;;1.70;0.60;;;21.00;45.10;;;;;;5079927;28;20523;-49
2021/05/24 10:47:58;;;;;;;1.90;0.73;;;20.80;45.40;;;;;;5079577;28;20464;-49
2021/05/24 10:50:31;;;;;;;5.30;0.80;;;20.80;45.50;;;;;;5079296;28;20445;-49
2021/05/24 10:53:07;;;;;;;2.67;1.00;;;20.70;45.80;;;;;;5083279;28;20488;-49
2021/05/24 10:55:43;;;;;;;4.23;0.90;;;20.80;45.20;;;;;;5078718;28;20458;-49
2021/05/24 10:58:11;;;;;;;1.83;0.60;;;20.70;45.60;;;;;;5080309;28;20487;-49
2021/05/24 11:01:00;;;;;;;1.60;0.80;;;20.70;46.40;;;;;;5077839;28;20479;-49
2021/05/24 11:03:31;;;;;;;2.03;1.00;;;20.70;45.80;;;;;;5075400;28;20995;-49
2021/05/24 11:06:15;;;;;;;2.57;0.80;;;20.60;46.60;;;;;;5079505;28;20441;-49
2021/05/24 11:09:10;;;;;;;0.83;0.63;;;20.60;47.10;;;;;;5078502;28;20493;-49
2021/05/24 11:11:39;;;;;;;1.30;0.77;;;20.60;47.10;;;;;;5075543;28;20457;-49
2021/05/24 11:14:10;;;;;;;1.43;0.90;;;20.70;46.40;;;;;;5077654;28;20513;-49
2021/05/24 11:16:57;;;;;;;1.27;0.70;;;20.70;46.80;;;;;;5077289;28;20960;-49
2021/05/24 11:19:27;;;;;;;1.20;0.73;;;20.70;46.10;;;;;;5074784;28;20547;-49
2021/05/24 11:22:36;;;;;;;3.83;1.10;;;20.60;46.10;;;;;;5074339;28;20976;-49
2021/05/24 11:28:14;;;;;;;3.17;0.70;;;20.60;47.90;;;;;;5078045;28;20441;-49
2021/05/24 11:30:42;;;;;;;1.87;1.20;;;20.70;48.20;;;;;;5074496;28;20467;-49
2021/05/24 11:33:36;;;;;;;1.80;1.00;;;20.80;47.00;;;;;;5078848;28;20454;-49
2021/05/24 11:36:10;;;;;;;1.40;1.00;;;20.90;46.40;;;;;;5079135;28;20441;-49
2021/05/24 11:38:38;;;;;;;1.17;0.80;;;21.00;46.20;;;;;;5075948;28;20504;-49
2021/05/24 11:41:17;;;;;;;1.27;0.90;;;21.00;45.90;;;;;;5079116;28;20449;-48
2021/05/24 11:43:53;;;;;;;3.77;0.97;;;20.90;45.90;;;;;;5076295;28;20437;-49
2021/05/24 11:46:22;;;;;;;2.10;0.73;;;20.90;45.50;;;;;;5078861;28;20472;-49
2021/05/24 11:48:51;;;;;;;2.20;0.80;;;20.90;45.30;;;;;;5075672;28;20445;-49
2021/05/24 11:51:33;;;;;;;0.67;0.50;;;20.80;45.10;;;;;;5080440;28;20441;-49
2021/05/24 11:54:09;;;;;;;3.40;0.80;;;20.80;45.50;;;;;;5080166;28;20572;-49
2021/05/24 11:56:51;;;;;;;2.20;0.70;;;20.80;45.20;;;;;;5074222;28;20478;-49
2021/05/24 11:59:22;;;;;;;1.90;0.80;;;20.90;45.60;;;;;;5078808;28;20484;-49
2021/05/24 12:01:52;;;;;;;2.10;0.60;;;20.80;43.50;;;;;;5076905;28;20957;-49
2021/05/24 12:04:23;;;;;;;2.57;0.90;;;20.80;44.20;;;;;;5080964;28;20814;-49
2021/05/24 12:06:58;;;;;;;1.07;0.60;;;20.70;45.20;;;;;;5074595;28;20957;-49
2021/05/24 12:09:47;;;;;;;1.27;0.77;;;20.70;44.40;;;;;;5076036;28;20544;-49
2021/05/24 12:12:16;;;;;;;1.40;0.67;;;20.70;43.80;;;;;;5078605;28;20808;-49
2021/05/24 12:14:51;;;;;;;2.13;0.70;;;20.70;43.90;;;;;;5074630;28;20476;-49
2021/05/24 12:17:21;;;;;;;0.97;0.50;;;20.70;45.10;;;;;;5076709;28;20865;-49
2021/05/24 12:19:54;;;;;;;1.63;0.60;;;20.80;44.50;;;;;;5074695;28;20485;-49
2021/05/24 12:22:28;;;;;;;0.90;0.60;;;20.80;43.00;;;;;;5078868;28;20462;-49
2021/05/24 12:24:58;;;;;;;1.93;0.77;;;20.80;43.70;;;;;;5075900;28;20489;-49
2021/05/24 12:27:28;;;;;;;0.70;0.53;;;20.80;44.60;;;;;;5078874;28;20450;-49
2021/05/24 12:30:19;;;;;;;0.70;0.50;;;20.90;43.20;;;;;;5081460;28;20956;-49
2021/05/24 12:32:55;;;;;;;1.73;0.50;;;20.90;41.30;;;;;;5079539;28;20441;-49
2021/05/24 12:35:29;;;;;;;1.03;0.50;;;20.90;42.10;;;;;;5082323;28;20965;-49
2021/05/24 12:38:49;;;;;;;2.60;0.90;;;20.90;40.80;;;;;;5081177;28;20460;-49
2021/05/24 12:41:04;;;;;;;1.70;0.70;;;20.80;41.40;;;;;;5078273;28;20479;-49
2021/05/24 12:43:52;;;;;;;1.30;0.50;;;20.90;42.40;;;;;;5081637;28;20525;-49
2021/05/24 12:46:21;;;;;;;1.23;0.70;;;20.90;42.20;;;;;;5081274;28;20938;-49
2021/05/24 12:48:54;;;;;;;2.93;0.80;;;20.90;41.80;;;;;;5082925;28;20460;-49
2021/05/24 12:51:28;;;;;;;0.87;0.60;;;21.00;42.90;;;;;;5082784;28;20449;-49
2021/05/24 12:54:06;;;;;;;1.17;0.60;;;21.00;41.90;;;;;;5080410;28;20449;-49
2021/05/24 12:56:38;;;;;;;0.83;0.50;;;21.00;42.00;;;;;;5081178;28;20460;-49
2021/05/24 12:59:16;;;;;;;2.43;0.63;;;21.10;42.90;;;;;;5077885;28;20485;-49
2021/05/24 13:01:47;;;;;;;1.53;0.80;;;21.10;43.10;;;;;;5080356;28;20454;-49
2021/05/24 13:04:17;;;;;;;0.93;0.60;;;21.10;42.60;;;;;;5079019;28;20477;-49
2021/05/24 13:06:47;;;;;;;0.63;0.50;;;21.00;42.40;;;;;;5077403;28;20454;-49
2021/05/24 13:09:23;;;;;;;1.37;0.60;;;21.00;42.50;;;;;;5082431;28;20468;-49
2021/05/24 13:12:00;;;;;;;1.50;0.70;;;20.90;43.00;;;;;;5083689;28;20462;-49
2021/05/24 13:14:39;;;;;;;0.87;0.87;;;20.80;43.80;;;;;;5082785;28;20819;-49